Saga Sapphire — 9HOF8 — position and weather

sailwx.info

Track history (hours):
 
Tides and Currents Weather Stations Pressure Air Temp Water Temp Dewpoint Dewpoint Depression Visibility Wind Speed Wind Dir Waves Ship Positions

Saga Sapphire

Last reported at 2017-Jul-21 16:30 UTC. Time now 2017-Jul-21 16:34 UTC.
Position N 59°21' E 018°15'.

Length 200 m; draft 8.5 m.

Type: Ship. MMSI: 256208000.

Date/timePositionNaut miles runAvg speedWind from/ knotsBaromVisibWave heightAir tempDewpointWater temp
2017-Jul-21 16:30N 59°21' E 018°15'4 7.7
2017-Jul-21 16:00N 59°21' E 018°07'0 0.4
2017-Jul-21 15:31N 59°21' E 018°07'0 0.0
2017-Jul-21 14:59N 59°21' E 018°07'0 0.0
2017-Jul-21 14:19N 59°21' E 018°07'0 0.0
2017-Jul-21 13:49N 59°21' E 018°07'0 0.0
2017-Jul-21 13:13N 59°21' E 018°07'0 0.0
2017-Jul-21 12:58N 59°21' E 018°07'0 0.0
2017-Jul-21 12:27N 59°21' E 018°07'0 0.0
2017-Jul-21 11:57N 59°21' E 018°07'0 0.0
2017-Jul-21 11:23N 59°21' E 018°07'0 0.0
2017-Jul-21 10:58N 59°21' E 018°07'0 0.0
2017-Jul-21 10:28N 59°21' E 018°07'0 0.0
2017-Jul-21 09:58N 59°21' E 018°07'0 0.0
2017-Jul-21 09:30N 59°21' E 018°07'0 0.0
2017-Jul-21 09:00N 59°21' E 018°07'0 0.0
2017-Jul-21 08:17N 59°21' E 018°07'0 0.0
2017-Jul-21 07:58N 59°21' E 018°07'0 0.0
2017-Jul-21 07:28N 59°21' E 018°07'0 0.0
2017-Jul-21 06:48N 59°21' E 018°07'0 0.4
2017-Jul-21 06:30N 59°21' E 018°07'3 5.8
2017-Jul-21 06:01N 59°20' E 018°12'5 9.9
2017-Jul-21 05:30N 59°23' E 018°21'3 5.8
2017-Jul-21 05:00N 59°23' E 018°27'3 6.3
2017-Jul-21 04:30N 59°27' E 018°26'4 8.4
2017-Jul-21 04:00N 59°24' E 018°32'5 9.6
2017-Jul-21 03:30N 59°23' E 018°42'5 9.9
2017-Jul-21 03:01N 59°19' E 018°48'5 9.7
2017-Jul-21 02:30N 59°16' E 018°56'5 9.4
2017-Jul-21 02:00N 59°14' E 019°04'4 8.9
2017-Jul-21 01:30N 59°11' E 019°10'611.6
2017-Jul-21 01:00N 59°05' E 019°07'713.3
2017-Jul-21 00:30N 58°59' E 019°02'713.8
2017-Jul-21 00:00N 58°53' E 018°57'714.7
2017-Jul-20 23:30N 58°46' E 018°51'714.9
2017-Jul-20 23:00N 58°39' E 018°46'3015.0
2017-Jul-20 21:02N 58°12' E 018°25'7142.8
2017-Jul-20 21:00N 58°18' E 018°30'9121.8 010 / 111014.710.8 16.515.5
2017-Jul-20 20:55N 58°10' E 018°24'715.2
2017-Jul-20 20:29N 58°04' E 018°20'715.1
2017-Jul-20 20:00N 57°57' E 018°13'815.3
2017-Jul-20 19:30N 57°50' E 018°07'815.3
2017-Jul-20 19:00N 57°43' E 018°01'4015.9
2017-Jul-20 16:28N 57°06' E 017°32'1016.3
2017-Jul-20 15:53N 56°57' E 017°25'616.2
2017-Jul-20 15:30N 56°52' E 017°21'816.2
2017-Jul-20 15:00N 56°44' E 017°15'2116.1
2017-Jul-20 13:43N 56°25' E 017°02'316.0
2017-Jul-20 13:30N 56°22' E 017°00'816.0
2017-Jul-20 13:01N 56°14' E 016°55'816.1
2017-Jul-20 12:30N 56°06' E 016°52'815.8
2017-Jul-20 12:00N 56°01' E 016°42'816.0
2017-Jul-20 11:30N 55°57' E 016°30'816.0
2017-Jul-20 11:00N 55°53' E 016°17'816.1
2017-Jul-20 10:30N 55°49' E 016°04'816.0
2017-Jul-20 10:00N 55°46' E 015°51'816.1
2017-Jul-20 09:30N 55°43' E 015°38'816.1
2017-Jul-20 09:00N 55°38' E 015°26'816.1
2017-Jul-20 08:30N 55°34' E 015°14'816.3
2017-Jul-20 08:01N 55°31' E 015°01'816.2
2017-Jul-20 07:30N 55°27' E 014°48'816.0
2017-Jul-20 07:00N 55°22' E 014°37'816.2
2017-Jul-20 06:30N 55°16' E 014°29'816.0
2017-Jul-20 06:01N 55°10' E 014°20'816.1
2017-Jul-20 05:30N 55°03' E 014°10'815.7
2017-Jul-20 05:00N 54°59' E 013°59'815.9
2017-Jul-20 04:30N 54°57' E 013°45'815.9
2017-Jul-20 03:59N 54°54' E 013°31'715.7
2017-Jul-20 03:30N 54°52' E 013°19'815.7
2017-Jul-20 02:59N 54°49' E 013°06'815.5
2017-Jul-20 02:30N 54°47' E 012°53'815.1
2017-Jul-20 01:59N 54°44' E 012°41'1815.1
2017-Jul-20 00:48N 54°32' E 012°17'515.6
2017-Jul-20 00:29N 54°28' E 012°15'714.3
2017-Jul-20 00:00N 54°25' E 012°04'1714.9
2017-Jul-19 22:50N 54°28' E 011°35'515.7
2017-Jul-19 22:29N 54°30' E 011°26'714.8
2017-Jul-19 22:01N 54°33' E 011°15'714.4
2017-Jul-19 21:30N 54°37' E 011°05'714.7
2017-Jul-19 21:00N 54°41' E 010°54'713.1
2017-Jul-19 20:30N 54°47' E 010°51'713.7
2017-Jul-19 20:01N 54°54' E 010°53'12736.0
2017-Jul-19 20:00N 54°42' E 010°48'1939.2 090 / 351011.610.8 17.113.2
2017-Jul-19 19:30N 54°60' E 011°01'814.6
2017-Jul-19 18:59N 55°07' E 011°02'109 5.0
2017-Jul-18 21:21N 56°53' E 011°46'511.6
2017-Jul-18 20:54N 56°58' E 011°43'611.7
2017-Jul-18 20:22N 57°04' E 011°39'2 5.8
2017-Jul-18 20:00N 57°06' E 011°36'386.1 230 / 151018.3 5.4 16.011.2
2017-Jul-18 19:57N 57°09' E 011°37'511.6
2017-Jul-18 19:30N 57°14' E 011°37'611.6
2017-Jul-18 19:00N 57°20' E 011°35'611.2
2017-Jul-18 18:30N 57°26' E 011°36'611.6
2017-Jul-18 18:00N 57°31' E 011°37'510.5
2017-Jul-18 17:31N 57°36' E 011°40'5 9.6
2017-Jul-18 17:00N 57°41' E 011°43'3 6.6
2017-Jul-18 16:30N 57°42' E 011°49'0 0.1
2017-Jul-18 16:01N 57°42' E 011°49'0 0.1
2017-Jul-18 15:30N 57°42' E 011°49'0 0.0
2017-Jul-18 14:59N 57°42' E 011°49'0 0.0
2017-Jul-18 13:59N 57°42' E 011°49'0 0.0
2017-Jul-18 13:29N 57°42' E 011°49'0 0.0
2017-Jul-18 12:58N 57°42' E 011°49'0 0.0
2017-Jul-18 12:28N 57°42' E 011°49'0 0.0
2017-Jul-18 11:58N 57°42' E 011°49'0 0.0
2017-Jul-18 11:28N 57°42' E 011°49'0 0.0
2017-Jul-18 11:00N 57°42' E 011°49'0 0.0
2017-Jul-18 10:30N 57°42' E 011°49'0 0.0
2017-Jul-18 10:00N 57°42' E 011°49'0 0.0
2017-Jul-18 09:31N 57°42' E 011°49'0 0.0
2017-Jul-18 08:59N 57°42' E 011°49'0 0.0
2017-Jul-18 08:29N 57°42' E 011°49'0 0.0
2017-Jul-18 07:59N 57°42' E 011°49'0 0.0
2017-Jul-18 07:29N 57°42' E 011°49'0 0.0
2017-Jul-18 06:59N 57°42' E 011°49'0 0.0
2017-Jul-18 06:29N 57°42' E 011°49'0 0.0
2017-Jul-18 06:01N 57°42' E 011°49'1 2.0
2017-Jul-18 05:30N 57°41' E 011°48'4 7.7
2017-Jul-18 05:00N 57°39' E 011°41'5 9.3
2017-Jul-18 04:31N 57°36' E 011°36'4 8.5
2017-Jul-18 04:00N 57°38' E 011°30'4 8.6
2017-Jul-18 03:30N 57°41' E 011°24'611.1
2017-Jul-18 03:00N 57°44' E 011°16'611.4
2017-Jul-18 02:30N 57°48' E 011°07'712.0
2017-Jul-18 01:54N 57°52' E 010°56'512.0
2017-Jul-18 01:30N 57°54' E 010°48'612.1
2017-Jul-18 01:00N 57°55' E 010°37'612.9
2017-Jul-18 00:30N 57°54' E 010°25'5710.4
2017-Jul-17 19:00N 57°30' E 008°48'100 8.9 270 / 151017.0 0.3 15.010.9
2017-Jul-17 07:47N 56°12' E 006°52'3 8.8
2017-Jul-17 07:30N 56°10' E 006°50'5 9.0
2017-Jul-17 06:59N 56°06' E 006°46'4 8.9
2017-Jul-17 06:30N 56°02' E 006°42'2447.3
2017-Jul-17 06:00N 55°42' E 006°18'64 6.4 220 / 181019.510.8 15.510.816.0
2017-Jul-16 20:00N 54°48' E 005°18'15311.8 270 / 251021.010.8 15.410.915.0
2017-Jul-16 07:00N 52°36' E 003°06'53 6.4 200 / 131020.310.8 17.516.717.0
2017-Jul-15 22:36N 51°52' E 002°17'1 9.5
2017-Jul-15 22:30N 51°51' E 002°16'5 9.8
2017-Jul-15 22:00N 51°47' E 002°12'510.1
2017-Jul-15 21:30N 51°43' E 002°06'510.3
2017-Jul-15 21:00N 51°40' E 002°01'510.4
2017-Jul-15 20:30N 51°35' E 001°56'510.4
2017-Jul-15 20:00N 51°31' E 001°51'510.9
2017-Jul-15 19:30N 51°27' E 001°46'611.4
2017-Jul-15 19:00N 51°21' E 001°43'611.8
2017-Jul-15 18:30N 51°16' E 001°40'612.7
2017-Jul-15 18:00N 51°10' E 001°34'612.5
2017-Jul-15 17:31N 51°07' E 001°26'4 8.2
2017-Jul-15 16:59N 51°07' E 001°20'0 0.6
2017-Jul-15 16:23N 51°07' E 001°19'0 0.0
2017-Jul-15 15:49N 51°07' E 001°19'0 0.0
2017-Jul-15 15:26N 51°07' E 001°19'0 0.0
2017-Jul-15 14:57N 51°07' E 001°19'0 0.0
2017-Jul-15 13:51N 51°07' E 001°19'0 0.0
2017-Jul-15 13:09N 51°07' E 001°19'0 0.0
2017-Jul-15 12:57N 51°07' E 001°19'0 0.0
2017-Jul-15 12:26N 51°07' E 001°19'0 0.0
2017-Jul-15 11:54N 51°07' E 001°19'0 0.0
2017-Jul-15 11:30N 51°07' E 001°19'0 0.0
2017-Jul-15 10:47N 51°07' E 001°19'0 0.0
2017-Jul-15 10:08N 51°07' E 001°19'0 0.0
2017-Jul-15 09:50N 51°07' E 001°19'0 0.0
2017-Jul-15 09:28N 51°07' E 001°19'0 0.0
2017-Jul-15 09:00N 51°07' E 001°19'0 0.0
2017-Jul-15 08:25N 51°07' E 001°19'0 0.0
2017-Jul-15 07:57N 51°07' E 001°19'0 0.0
2017-Jul-15 07:27N 51°07' E 001°19'0 0.0
2017-Jul-15 06:56N 51°07' E 001°19'0 0.2
2017-Jul-15 06:30N 51°07' E 001°19'4 7.4
2017-Jul-15 06:00N 51°08' E 001°25'4 8.1
2017-Jul-15 05:31N 51°08' E 001°31'510.3
2017-Jul-15 05:00N 51°10' E 001°38'612.2
2017-Jul-15 04:30N 51°14' E 001°46'611.6
2017-Jul-15 04:00N 51°19' E 001°50'12827.5
2017-Jul-15 04:00N 51°30' E 002°00'612.9 270 / 81021.410.8 17.210.3
2017-Jul-15 03:30N 51°25' E 001°55'611.8
2017-Jul-15 03:00N 51°30' E 001°60'611.8
2017-Jul-15 02:30N 51°34' E 002°07'2112.7
2017-Jul-15 00:51N 51°50' E 002°28'8314.1
2017-Jul-14 19:00N 53°12' E 002°42'20617.2 300 / 201018.710.8 15.710.6
2017-Jul-14 07:00N 56°36' E 003°36'121 9.7 170 / 81010.910.8 14.312.7
2017-Jul-13 18:32N 58°26' E 005°08'013.5
2017-Jul-13 18:30N 58°26' E 005°09'713.3
2017-Jul-13 18:00N 58°33' E 005°12'9567.5
2017-Jul-13 18:00N 58°24' E 005°06'1632.9 160 / 101016.110.8 13.4 9.1
2017-Jul-13 17:30N 58°39' E 005°16'713.3
2017-Jul-13 17:00N 58°45' E 005°20'612.9
2017-Jul-13 16:30N 58°51' E 005°27'611.4
2017-Jul-13 16:00N 58°56' E 005°33'713.7
2017-Jul-13 15:30N 59°02' E 005°33'5 9.7
2017-Jul-13 15:00N 59°00' E 005°41'2 3.9
2017-Jul-13 14:28N 58°58' E 005°44'0 0.0
2017-Jul-13 13:58N 58°58' E 005°44'0 0.0
2017-Jul-13 13:28N 58°58' E 005°44'0 0.0
2017-Jul-13 12:58N 58°58' E 005°44'0 0.0
2017-Jul-13 12:28N 58°58' E 005°44'0 0.0
2017-Jul-13 11:58N 58°58' E 005°44'0 0.0
2017-Jul-13 11:28N 58°58' E 005°44'0 0.0
2017-Jul-13 10:58N 58°58' E 005°44'0 0.0
2017-Jul-13 10:28N 58°58' E 005°44'0 0.0
2017-Jul-13 09:58N 58°58' E 005°44'0 0.0
2017-Jul-13 09:28N 58°58' E 005°44'0 0.0
2017-Jul-13 08:58N 58°58' E 005°44'0 0.0
2017-Jul-13 08:28N 58°58' E 005°44'0 0.0
2017-Jul-13 07:55N 58°58' E 005°44'0 0.0
2017-Jul-13 07:28N 58°58' E 005°44'0 0.0
2017-Jul-13 06:55N 58°58' E 005°44'0 0.0
2017-Jul-13 06:28N 58°58' E 005°44'0 0.0
2017-Jul-13 05:58N 58°58' E 005°44'0 0.0
2017-Jul-13 05:28N 58°58' E 005°44'0 0.5
2017-Jul-13 05:00N 58°59' E 005°44'3 5.3
2017-Jul-13 04:30N 59°01' E 005°40'510.5
2017-Jul-13 04:00N 59°04' E 005°33'5 9.9
2017-Jul-13 03:30N 59°05' E 005°23'713.2
2017-Jul-13 03:00N 59°02' E 005°12'16998.1
2017-Jul-13 03:00N 59°06' E 004°42'1021.4 330 / 171017.710.8 12.4 8.213.0
2017-Jul-13 02:30N 59°01' E 004°60'713.7
2017-Jul-13 02:00N 59°07' E 004°52'8111.6
2017-Jul-12 19:00N 60°24' E 004°00'8917.8 350 / 201015.610.8 12.4 7.7
2017-Jul-12 14:00N 61°52' E 004°28'714.8
2017-Jul-12 13:30N 61°59' E 004°33'714.5
2017-Jul-12 13:00N 62°05' E 004°42'714.3
2017-Jul-12 12:30N 62°10' E 004°52'713.6
2017-Jul-12 12:00N 62°14' E 005°04'613.0
2017-Jul-12 11:30N 62°13' E 005°17'4 8.6
2017-Jul-12 11:00N 62°11' E 005°26'4 8.1
2017-Jul-12 10:29N 62°11' E 005°35'612.9
2017-Jul-12 10:00N 62°12' E 005°48'612.8
2017-Jul-12 09:30N 62°16' E 005°58'713.5
2017-Jul-12 09:00N 62°21' E 006°09'713.1
2017-Jul-12 08:30N 62°24' E 006°22'713.4
2017-Jul-12 07:59N 62°26' E 006°36'612.6
2017-Jul-12 07:30N 62°27' E 006°49'612.1
2017-Jul-12 07:01N 62°22' E 006°56'712.9
2017-Jul-12 06:30N 62°16' E 007°01'613.0
2017-Jul-12 06:00N 62°09' E 006°60'  
Track history (hours):
 
Tides and Currents Weather Stations Pressure Air Temp Water Temp Dewpoint Dewpoint Depression Visibility Wind Speed Wind Dir Waves Ship Positions

Saga Sapphire

Last reported at 2017-Jul-21 16:30 UTC. Time now 2017-Jul-21 16:34 UTC.
Position N 59°21' E 018°15'.

Length 200 m; draft 8.5 m.

Type: Ship. MMSI: 256208000.

Date/timePositionNaut miles runAvg speedWind from/ knotsBaromVisibWave heightAir tempDewpointWater temp
2017-Jul-21 16:30N 59°21' E 018°15'4 7.7
2017-Jul-21 16:00N 59°21' E 018°07'0 0.4
2017-Jul-21 15:31N 59°21' E 018°07'0 0.0
2017-Jul-21 14:59N 59°21' E 018°07'0 0.0
2017-Jul-21 14:19N 59°21' E 018°07'0 0.0
2017-Jul-21 13:49N 59°21' E 018°07'0 0.0
2017-Jul-21 13:13N 59°21' E 018°07'0 0.0
2017-Jul-21 12:58N 59°21' E 018°07'0 0.0
2017-Jul-21 12:27N 59°21' E 018°07'0 0.0
2017-Jul-21 11:57N 59°21' E 018°07'0 0.0
2017-Jul-21 11:23N 59°21' E 018°07'0 0.0
2017-Jul-21 10:58N 59°21' E 018°07'0 0.0
2017-Jul-21 10:28N 59°21' E 018°07'0 0.0
2017-Jul-21 09:58N 59°21' E 018°07'0 0.0
2017-Jul-21 09:30N 59°21' E 018°07'0 0.0
2017-Jul-21 09:00N 59°21' E 018°07'0 0.0
2017-Jul-21 08:17N 59°21' E 018°07'0 0.0
2017-Jul-21 07:58N 59°21' E 018°07'0 0.0
2017-Jul-21 07:28N 59°21' E 018°07'0 0.0
2017-Jul-21 06:48N 59°21' E 018°07'0 0.4
2017-Jul-21 06:30N 59°21' E 018°07'3 5.8
2017-Jul-21 06:01N 59°20' E 018°12'5 9.9
2017-Jul-21 05:30N 59°23' E 018°21'3 5.8
2017-Jul-21 05:00N 59°23' E 018°27'3 6.3
2017-Jul-21 04:30N 59°27' E 018°26'4 8.4
2017-Jul-21 04:00N 59°24' E 018°32'5 9.6
2017-Jul-21 03:30N 59°23' E 018°42'5 9.9
2017-Jul-21 03:01N 59°19' E 018°48'5 9.7
2017-Jul-21 02:30N 59°16' E 018°56'5 9.4
2017-Jul-21 02:00N 59°14' E 019°04'4 8.9
2017-Jul-21 01:30N 59°11' E 019°10'611.6
2017-Jul-21 01:00N 59°05' E 019°07'713.3
2017-Jul-21 00:30N 58°59' E 019°02'713.8
2017-Jul-21 00:00N 58°53' E 018°57'714.7
2017-Jul-20 23:30N 58°46' E 018°51'714.9
2017-Jul-20 23:00N 58°39' E 018°46'3015.0
2017-Jul-20 21:02N 58°12' E 018°25'7142.8
2017-Jul-20 21:00N 58°18' E 018°30'9121.8 010 / 111014.710.8 16.515.5
2017-Jul-20 20:55N 58°10' E 018°24'715.2
2017-Jul-20 20:29N 58°04' E 018°20'715.1
2017-Jul-20 20:00N 57°57' E 018°13'815.3
2017-Jul-20 19:30N 57°50' E 018°07'815.3
2017-Jul-20 19:00N 57°43' E 018°01'4015.9
2017-Jul-20 16:28N 57°06' E 017°32'1016.3
2017-Jul-20 15:53N 56°57' E 017°25'616.2
2017-Jul-20 15:30N 56°52' E 017°21'816.2
2017-Jul-20 15:00N 56°44' E 017°15'2116.1
2017-Jul-20 13:43N 56°25' E 017°02'316.0
2017-Jul-20 13:30N 56°22' E 017°00'816.0
2017-Jul-20 13:01N 56°14' E 016°55'816.1
2017-Jul-20 12:30N 56°06' E 016°52'815.8
2017-Jul-20 12:00N 56°01' E 016°42'816.0
2017-Jul-20 11:30N 55°57' E 016°30'816.0
2017-Jul-20 11:00N 55°53' E 016°17'816.1
2017-Jul-20 10:30N 55°49' E 016°04'816.0
2017-Jul-20 10:00N 55°46' E 015°51'816.1
2017-Jul-20 09:30N 55°43' E 015°38'816.1
2017-Jul-20 09:00N 55°38' E 015°26'816.1
2017-Jul-20 08:30N 55°34' E 015°14'816.3
2017-Jul-20 08:01N 55°31' E 015°01'816.2
2017-Jul-20 07:30N 55°27' E 014°48'816.0
2017-Jul-20 07:00N 55°22' E 014°37'816.2
2017-Jul-20 06:30N 55°16' E 014°29'816.0
2017-Jul-20 06:01N 55°10' E 014°20'816.1
2017-Jul-20 05:30N 55°03' E 014°10'815.7
2017-Jul-20 05:00N 54°59' E 013°59'815.9
2017-Jul-20 04:30N 54°57' E 013°45'815.9
2017-Jul-20 03:59N 54°54' E 013°31'715.7
2017-Jul-20 03:30N 54°52' E 013°19'815.7
2017-Jul-20 02:59N 54°49' E 013°06'815.5
2017-Jul-20 02:30N 54°47' E 012°53'815.1
2017-Jul-20 01:59N 54°44' E 012°41'1815.1
2017-Jul-20 00:48N 54°32' E 012°17'515.6
2017-Jul-20 00:29N 54°28' E 012°15'714.3
2017-Jul-20 00:00N 54°25' E 012°04'1714.9
2017-Jul-19 22:50N 54°28' E 011°35'515.7
2017-Jul-19 22:29N 54°30' E 011°26'714.8
2017-Jul-19 22:01N 54°33' E 011°15'714.4
2017-Jul-19 21:30N 54°37' E 011°05'714.7
2017-Jul-19 21:00N 54°41' E 010°54'713.1
2017-Jul-19 20:30N 54°47' E 010°51'713.7
2017-Jul-19 20:01N 54°54' E 010°53'12736.0
2017-Jul-19 20:00N 54°42' E 010°48'1939.2 090 / 351011.610.8 17.113.2
2017-Jul-19 19:30N 54°60' E 011°01'814.6
2017-Jul-19 18:59N 55°07' E 011°02'109 5.0
2017-Jul-18 21:21N 56°53' E 011°46'511.6
2017-Jul-18 20:54N 56°58' E 011°43'611.7
2017-Jul-18 20:22N 57°04' E 011°39'2 5.8
2017-Jul-18 20:00N 57°06' E 011°36'386.1 230 / 151018.3 5.4 16.011.2
2017-Jul-18 19:57N 57°09' E 011°37'511.6
2017-Jul-18 19:30N 57°14' E 011°37'611.6
2017-Jul-18 19:00N 57°20' E 011°35'611.2
2017-Jul-18 18:30N 57°26' E 011°36'611.6
2017-Jul-18 18:00N 57°31' E 011°37'510.5
2017-Jul-18 17:31N 57°36' E 011°40'5 9.6
2017-Jul-18 17:00N 57°41' E 011°43'3 6.6
2017-Jul-18 16:30N 57°42' E 011°49'0 0.1
2017-Jul-18 16:01N 57°42' E 011°49'0 0.1
2017-Jul-18 15:30N 57°42' E 011°49'0 0.0
2017-Jul-18 14:59N 57°42' E 011°49'0 0.0
2017-Jul-18 13:59N 57°42' E 011°49'0 0.0
2017-Jul-18 13:29N 57°42' E 011°49'0 0.0
2017-Jul-18 12:58N 57°42' E 011°49'0 0.0
2017-Jul-18 12:28N 57°42' E 011°49'0 0.0
2017-Jul-18 11:58N 57°42' E 011°49'0 0.0
2017-Jul-18 11:28N 57°42' E 011°49'0 0.0
2017-Jul-18 11:00N 57°42' E 011°49'0 0.0
2017-Jul-18 10:30N 57°42' E 011°49'0 0.0
2017-Jul-18 10:00N 57°42' E 011°49'0 0.0
2017-Jul-18 09:31N 57°42' E 011°49'0 0.0
2017-Jul-18 08:59N 57°42' E 011°49'0 0.0
2017-Jul-18 08:29N 57°42' E 011°49'0 0.0
2017-Jul-18 07:59N 57°42' E 011°49'0 0.0
2017-Jul-18 07:29N 57°42' E 011°49'0 0.0
2017-Jul-18 06:59N 57°42' E 011°49'0 0.0
2017-Jul-18 06:29N 57°42' E 011°49'0 0.0
2017-Jul-18 06:01N 57°42' E 011°49'1 2.0
2017-Jul-18 05:30N 57°41' E 011°48'4 7.7
2017-Jul-18 05:00N 57°39' E 011°41'5 9.3
2017-Jul-18 04:31N 57°36' E 011°36'4 8.5
2017-Jul-18 04:00N 57°38' E 011°30'4 8.6
2017-Jul-18 03:30N 57°41' E 011°24'611.1
2017-Jul-18 03:00N 57°44' E 011°16'611.4
2017-Jul-18 02:30N 57°48' E 011°07'712.0
2017-Jul-18 01:54N 57°52' E 010°56'512.0
2017-Jul-18 01:30N 57°54' E 010°48'612.1
2017-Jul-18 01:00N 57°55' E 010°37'612.9
2017-Jul-18 00:30N 57°54' E 010°25'5710.4
2017-Jul-17 19:00N 57°30' E 008°48'100 8.9 270 / 151017.0 0.3 15.010.9
2017-Jul-17 07:47N 56°12' E 006°52'3 8.8
2017-Jul-17 07:30N 56°10' E 006°50'5 9.0
2017-Jul-17 06:59N 56°06' E 006°46'4 8.9
2017-Jul-17 06:30N 56°02' E 006°42'2447.3
2017-Jul-17 06:00N 55°42' E 006°18'64 6.4 220 / 181019.510.8 15.510.816.0
2017-Jul-16 20:00N 54°48' E 005°18'15311.8 270 / 251021.010.8 15.410.915.0
2017-Jul-16 07:00N 52°36' E 003°06'53 6.4 200 / 131020.310.8 17.516.717.0
2017-Jul-15 22:36N 51°52' E 002°17'1 9.5
2017-Jul-15 22:30N 51°51' E 002°16'5 9.8
2017-Jul-15 22:00N 51°47' E 002°12'510.1
2017-Jul-15 21:30N 51°43' E 002°06'510.3
2017-Jul-15 21:00N 51°40' E 002°01'510.4
2017-Jul-15 20:30N 51°35' E 001°56'510.4
2017-Jul-15 20:00N 51°31' E 001°51'510.9
2017-Jul-15 19:30N 51°27' E 001°46'611.4
2017-Jul-15 19:00N 51°21' E 001°43'611.8
2017-Jul-15 18:30N 51°16' E 001°40'612.7
2017-Jul-15 18:00N 51°10' E 001°34'612.5
2017-Jul-15 17:31N 51°07' E 001°26'4 8.2
2017-Jul-15 16:59N 51°07' E 001°20'0 0.6
2017-Jul-15 16:23N 51°07' E 001°19'0 0.0
2017-Jul-15 15:49N 51°07' E 001°19'0 0.0
2017-Jul-15 15:26N 51°07' E 001°19'0 0.0
2017-Jul-15 14:57N 51°07' E 001°19'0 0.0
2017-Jul-15 13:51N 51°07' E 001°19'0 0.0
2017-Jul-15 13:09N 51°07' E 001°19'0 0.0
2017-Jul-15 12:57N 51°07' E 001°19'0 0.0
2017-Jul-15 12:26N 51°07' E 001°19'0 0.0
2017-Jul-15 11:54N 51°07' E 001°19'0 0.0
2017-Jul-15 11:30N 51°07' E 001°19'0 0.0
2017-Jul-15 10:47N 51°07' E 001°19'0 0.0
2017-Jul-15 10:08N 51°07' E 001°19'0 0.0
2017-Jul-15 09:50N 51°07' E 001°19'0 0.0
2017-Jul-15 09:28N 51°07' E 001°19'0 0.0
2017-Jul-15 09:00N 51°07' E 001°19'0 0.0
2017-Jul-15 08:25N 51°07' E 001°19'0 0.0
2017-Jul-15 07:57N 51°07' E 001°19'0 0.0
2017-Jul-15 07:27N 51°07' E 001°19'0 0.0
2017-Jul-15 06:56N 51°07' E 001°19'0 0.2
2017-Jul-15 06:30N 51°07' E 001°19'4 7.4
2017-Jul-15 06:00N 51°08' E 001°25'4 8.1
2017-Jul-15 05:31N 51°08' E 001°31'510.3
2017-Jul-15 05:00N 51°10' E 001°38'612.2
2017-Jul-15 04:30N 51°14' E 001°46'611.6
2017-Jul-15 04:00N 51°19' E 001°50'12827.5
2017-Jul-15 04:00N 51°30' E 002°00'612.9 270 / 81021.410.8 17.210.3
2017-Jul-15 03:30N 51°25' E 001°55'611.8
2017-Jul-15 03:00N 51°30' E 001°60'611.8
2017-Jul-15 02:30N 51°34' E 002°07'2112.7
2017-Jul-15 00:51N 51°50' E 002°28'8314.1
2017-Jul-14 19:00N 53°12' E 002°42'20617.2 300 / 201018.710.8 15.710.6
2017-Jul-14 07:00N 56°36' E 003°36'121 9.7 170 / 81010.910.8 14.312.7
2017-Jul-13 18:32N 58°26' E 005°08'013.5
2017-Jul-13 18:30N 58°26' E 005°09'713.3
2017-Jul-13 18:00N 58°33' E 005°12'9567.5
2017-Jul-13 18:00N 58°24' E 005°06'1632.9 160 / 101016.110.8 13.4 9.1
2017-Jul-13 17:30N 58°39' E 005°16'713.3
2017-Jul-13 17:00N 58°45' E 005°20'612.9
2017-Jul-13 16:30N 58°51' E 005°27'611.4
2017-Jul-13 16:00N 58°56' E 005°33'713.7
2017-Jul-13 15:30N 59°02' E 005°33'5 9.7
2017-Jul-13 15:00N 59°00' E 005°41'2 3.9
2017-Jul-13 14:28N 58°58' E 005°44'0 0.0
2017-Jul-13 13:58N 58°58' E 005°44'0 0.0
2017-Jul-13 13:28N 58°58' E 005°44'0 0.0
2017-Jul-13 12:58N 58°58' E 005°44'0 0.0
2017-Jul-13 12:28N 58°58' E 005°44'0 0.0
2017-Jul-13 11:58N 58°58' E 005°44'0 0.0
2017-Jul-13 11:28N 58°58' E 005°44'0 0.0
2017-Jul-13 10:58N 58°58' E 005°44'0 0.0
2017-Jul-13 10:28N 58°58' E 005°44'0 0.0
2017-Jul-13 09:58N 58°58' E 005°44'0 0.0
2017-Jul-13 09:28N 58°58' E 005°44'0 0.0
2017-Jul-13 08:58N 58°58' E 005°44'0 0.0
2017-Jul-13 08:28N 58°58' E 005°44'0 0.0
2017-Jul-13 07:55N 58°58' E 005°44'0 0.0
2017-Jul-13 07:28N 58°58' E 005°44'0 0.0
2017-Jul-13 06:55N 58°58' E 005°44'0 0.0
2017-Jul-13 06:28N 58°58' E 005°44'0 0.0
2017-Jul-13 05:58N 58°58' E 005°44'0 0.0
2017-Jul-13 05:28N 58°58' E 005°44'0 0.5
2017-Jul-13 05:00N 58°59' E 005°44'3 5.3
2017-Jul-13 04:30N 59°01' E 005°40'510.5
2017-Jul-13 04:00N 59°04' E 005°33'5 9.9
2017-Jul-13 03:30N 59°05' E 005°23'713.2
2017-Jul-13 03:00N 59°02' E 005°12'16998.1
2017-Jul-13 03:00N 59°06' E 004°42'1021.4 330 / 171017.710.8 12.4 8.213.0
2017-Jul-13 02:30N 59°01' E 004°60'713.7
2017-Jul-13 02:00N 59°07' E 004°52'8111.6
2017-Jul-12 19:00N 60°24' E 004°00'8917.8 350 / 201015.610.8 12.4 7.7
2017-Jul-12 14:00N 61°52' E 004°28'714.8
2017-Jul-12 13:30N 61°59' E 004°33'714.5
2017-Jul-12 13:00N 62°05' E 004°42'714.3
2017-Jul-12 12:30N 62°10' E 004°52'713.6
2017-Jul-12 12:00N 62°14' E 005°04'613.0
2017-Jul-12 11:30N 62°13' E 005°17'4 8.6
2017-Jul-12 11:00N 62°11' E 005°26'4 8.1
2017-Jul-12 10:29N 62°11' E 005°35'612.9
2017-Jul-12 10:00N 62°12' E 005°48'612.8
2017-Jul-12 09:30N 62°16' E 005°58'713.5
2017-Jul-12 09:00N 62°21' E 006°09'713.1
2017-Jul-12 08:30N 62°24' E 006°22'713.4
2017-Jul-12 07:59N 62°26' E 006°36'612.6
2017-Jul-12 07:30N 62°27' E 006°49'612.1
2017-Jul-12 07:01N 62°22' E 006°56'712.9
2017-Jul-12 06:30N 62°16' E 007°01'613.0
2017-Jul-12 06:00N 62°09' E 006°60'  

Dump ship's entire track history